Soleil Laural Canyon Historical Data
 
Daily Summary for February 18, 2019 Units:  English    Metric   Both
Daily Weekly Monthly Yearly Custom
  Current: High: Low: Average:
Temperature: 44.1 °F 52.9 °F 43.9 °F 46.7 °F
Dew Point: 29.8 °F 46.8 °F 28.9 °F 38.1 °F
Humidity: 57% 97% 41% 74%
Wind Speed: 0.2mph 9.8mph 0.0mph 2.3mph
Wind Gust: 1.1mph 13.6mph - -
WindENE - - SE
Pressure: 30.33 in 30.33 in 29.96 in -
Precipitation: 0.11 in      
Historical Graphs
 
 
Tabular Data for February 18, 2019
Time Temperature Dew Point Pressure Wind Wind Speed Wind Gust Humidity Rainfall Rate (Hourly) solar
00:04 43.9 °F 43.2 °F 29.97 in WNW 0.9 mph 1.1 mph 97% 0.03 in 0.00 W/m2
00:09 43.9 °F 43.2 °F 29.97 in NNW 1.3 mph 2.2 mph 97% 0.03 in 0.00 W/m2
00:13 43.9 °F 43.2 °F 29.97 in NNW 1.1 mph 1.1 mph 97% 0.03 in 0.00 W/m2
00:19 43.9 °F 43.2 °F 29.98 in NNW 0.2 mph 1.1 mph 97% 0.03 in 0.00 W/m2
00:24 43.9 °F 43.2 °F 29.97 in Calm     97% 0.02 in 0.00 W/m2
00:29 43.9 °F 43.2 °F 29.97 in Calm     97% 0.02 in 0.00 W/m2
00:34 43.9 °F 43.2 °F 29.98 in East 0.7 mph 1.1 mph 97% 0.02 in 0.00 W/m2
00:39 44.1 °F 43.3 °F 29.98 in Calm     97% 0.02 in 0.00 W/m2
00:44 44.1 °F 43.3 °F 29.97 in Calm     97% 0.02 in 0.00 W/m2
00:49 44.1 °F 43.3 °F 29.97 in Calm     97% 0.02 in 0.00 W/m2
00:54 44.1 °F 43.3 °F 29.97 in Calm     97% 0.01 in 0.00 W/m2
00:59 44.2 °F 43.5 °F 29.98 in Calm     97% 0.00 in 0.00 W/m2
01:04 44.2 °F 43.5 °F 29.97 in Calm     97% 0.00 in 0.00 W/m2
01:09 44.2 °F 43.5 °F 29.97 in Calm     97% 0.00 in 0.00 W/m2
01:14 44.4 °F 43.7 °F 29.96 in Calm     97% 0.00 in 0.00 W/m2
01:19 44.2 °F 43.5 °F 29.96 in East 0.7 mph 1.1 mph 97% 0.00 in 0.00 W/m2
01:24 44.2 °F 43.5 °F 29.97 in Calm     97% 0.00 in 0.00 W/m2
01:29 44.2 °F 43.5 °F 29.97 in Calm     97% 0.00 in 0.00 W/m2
01:34 44.2 °F 43.5 °F 29.98 in East 0.7 mph 1.1 mph 97% 0.00 in 0.00 W/m2
01:39 44.4 °F 43.7 °F 29.98 in Calm     97% 0.00 in 0.00 W/m2
01:44 44.4 °F 43.7 °F 29.97 in Calm     97% 0.00 in 0.00 W/m2
01:49 44.4 °F 43.7 °F 29.97 in Calm     97% 0.01 in 0.00 W/m2
01:54 44.2 °F 43.5 °F 29.97 in Calm     97% 0.01 in 0.00 W/m2
01:59 44.4 °F 43.7 °F 29.98 in ENE 0.7 mph 1.1 mph 97% 0.02 in 0.00 W/m2
02:04 44.4 °F 43.7 °F 29.99 in ENE 0.2 mph 1.1 mph 97% 0.02 in 0.00 W/m2
02:09 44.4 °F 43.7 °F 29.98 in Calm     97% 0.02 in 0.00 W/m2
02:14 44.4 °F 43.7 °F 29.99 in East 1.8 mph 2.2 mph 97% 0.03 in 0.00 W/m2
02:19 44.4 °F 43.7 °F 29.99 in East 0.9 mph 1.1 mph 97% 0.03 in 0.00 W/m2
02:24 44.4 °F 43.7 °F 29.98 in East 0.9 mph 1.1 mph 97% 0.03 in 0.00 W/m2
02:29 44.4 °F 43.7 °F 29.98 in Calm     97% 0.03 in 0.00 W/m2
02:34 44.4 °F 43.7 °F 29.99 in Calm     97% 0.03 in 0.00 W/m2
02:39 44.4 °F 43.7 °F 29.99 in East 2.2 mph 2.2 mph 97% 0.03 in 0.00 W/m2
02:44 44.4 °F 43.7 °F 29.99 in East 0.9 mph 1.1 mph 97% 0.03 in 0.00 W/m2
02:49 44.4 °F 43.7 °F 29.99 in East 0.2 mph 1.1 mph 97% 0.02 in 0.00 W/m2
02:54 44.4 °F 43.7 °F 30.00 in ESE 0.2 mph 1.1 mph 97% 0.03 in 0.00 W/m2
02:59 44.6 °F 43.9 °F 29.99 in East 0.9 mph 1.1 mph 97% 0.02 in 0.00 W/m2
03:04 44.6 °F 43.9 °F 30.01 in ESE 1.1 mph 1.1 mph 97% 0.02 in 0.00 W/m2
03:09 44.8 °F 44.1 °F 30.02 in East 0.7 mph 1.1 mph 97% 0.01 in 0.00 W/m2
03:14 45.0 °F 44.2 °F 30.01 in East 1.3 mph 2.2 mph 97% 0.02 in 0.00 W/m2
03:19 45.3 °F 44.6 °F 30.01 in Calm     97% 0.02 in 0.00 W/m2
03:24 45.1 °F 44.4 °F 30.00 in NE 0.9 mph 1.1 mph 97% 0.02 in 0.00 W/m2
03:29 45.5 °F 44.8 °F 30.01 in ENE 0.4 mph 1.1 mph 97% 0.03 in 0.00 W/m2
03:34 45.5 °F 44.8 °F 30.01 in East 0.2 mph 1.1 mph 97% 0.03 in 0.00 W/m2
03:39 45.9 °F 45.1 °F 30.02 in ENE 2.9 mph 3.4 mph 97% 0.03 in 0.00 W/m2
03:44 46.0 °F 45.3 °F 30.02 in ENE 1.3 mph 2.2 mph 97% 0.03 in 0.00 W/m2
03:49 46.6 °F 45.9 °F 30.02 in ESE 5.4 mph 6.9 mph 97% 0.02 in 0.00 W/m2
03:54 47.1 °F 46.4 °F 30.02 in ESE 3.4 mph 4.5 mph 97% 0.03 in 0.00 W/m2
03:59 47.1 °F 46.4 °F 30.02 in East 1.6 mph 2.2 mph 97% 0.03 in 0.00 W/m2
04:04 47.3 °F 46.6 °F 30.01 in ENE 2.5 mph 3.4 mph 97% 0.04 in 0.00 W/m2
04:09 47.3 °F 46.6 °F 30.01 in East 1.3 mph 2.2 mph 97% 0.03 in 0.00 W/m2
04:14 47.5 °F 46.8 °F 30.01 in East 1.3 mph 2.2 mph 97% 0.04 in 0.00 W/m2
04:19 47.3 °F 46.6 °F 30.02 in East 3.4 mph 4.5 mph 97% 0.04 in 0.00 W/m2
04:24 47.3 °F 46.6 °F 30.03 in SE 3.4 mph 5.8 mph 97% 0.03 in 0.00 W/m2
04:29 47.3 °F 46.6 °F 30.03 in East 3.4 mph 4.5 mph 97% 0.04 in 0.00 W/m2
04:34 47.1 °F 46.4 °F 30.02 in East 0.7 mph 1.1 mph 97% 0.04 in 0.00 W/m2
04:39 47.1 °F 46.4 °F 30.01 in East 2.0 mph 2.2 mph 97% 0.04 in 0.00 W/m2
04:44 46.8 °F 45.9 °F 30.01 in East 2.9 mph 4.5 mph 96% 0.04 in 0.00 W/m2
04:49 46.8 °F 45.9 °F 30.02 in ESE 4.0 mph 5.8 mph 96% 0.03 in 0.00 W/m2
04:54 46.6 °F 45.7 °F 30.02 in ESE 1.8 mph 2.2 mph 96% 0.04 in 0.00 W/m2
04:59 46.4 °F 45.7 °F 30.02 in East 0.2 mph 1.1 mph 97% 0.03 in 0.00 W/m2
05:04 46.2 °F 45.5 °F 30.02 in SE 2.0 mph 2.2 mph 97% 0.03 in 0.00 W/m2
05:09 46.2 °F 45.5 °F 30.02 in ESE 0.2 mph 1.1 mph 97% 0.02 in 0.00 W/m2
05:14 46.2 °F 45.5 °F 30.02 in SE 2.5 mph 3.4 mph 97% 0.02 in 0.00 W/m2
05:19 46.2 °F 45.3 °F 30.03 in SSE 0.7 mph 1.1 mph 96% 0.02 in 0.00 W/m2
05:24 46.0 °F 43.9 °F 30.02 in SE 5.4 mph 8.1 mph 92% 0.01 in 0.00 W/m2
05:29 45.7 °F 43.5 °F 30.02 in South 2.7 mph 4.5 mph 92% 0.01 in 0.00 W/m2
05:34 45.5 °F 43.2 °F 30.03 in SSW 2.5 mph 3.4 mph 91% 0.01 in 0.00 W/m2
05:39 45.5 °F 43.3 °F 30.02 in ESE 2.2 mph 4.5 mph 92% 0.01 in 0.00 W/m2
05:44 45.3 °F 43.2 °F 30.04 in ESE 0.9 mph 3.4 mph 92% 0.01 in 0.00 W/m2
05:45 45.3 °F 43.2 °F 30.04 in ESE 1.3 mph 3.4 mph 92% 0.01 in 0.00 W/m2
05:54 45.1 °F 43.2 °F 30.06 in East 2.9 mph 4.5 mph 93% 0.00 in 0.00 W/m2
05:59 45.1 °F 43.3 °F 30.05 in SSE 3.8 mph 6.9 mph 94% 0.00 in 0.00 W/m2
06:04 45.0 °F 43.0 °F 30.05 in ENE 4.3 mph 5.8 mph 93% 0.00 in 0.00 W/m2
06:09 45.0 °F 43.0 °F 30.06 in SSW 1.8 mph 3.4 mph 93% 0.00 in 0.00 W/m2
06:14 45.0 °F 43.0 °F 30.05 in SE 2.7 mph 3.4 mph 93% 0.00 in 0.00 W/m2
06:19 45.0 °F 43.2 °F 30.07 in SSE 1.8 mph 3.4 mph 94% 0.00 in 0.00 W/m2
06:24 44.8 °F 42.4 °F 30.06 in SSW 4.9 mph 5.8 mph 91% 0.00 in 0.00 W/m2
06:29 45.0 °F 42.6 °F 30.07 in SSW 9.8 mph 12.5 mph 91% 0.00 in 0.00 W/m2
06:34 44.8 °F 42.4 °F 30.08 in South 1.8 mph 2.2 mph 91% 0.00 in 0.00 W/m2
06:39 44.8 °F 41.7 °F 30.08 in SE 5.8 mph 8.1 mph 89% 0.00 in 0.00 W/m2
06:44 44.8 °F 41.7 °F 30.07 in SE 1.8 mph 3.4 mph 89% 0.00 in 0.00 W/m2
06:49 44.6 °F 41.9 °F 30.08 in South 2.0 mph 3.4 mph 90% 0.00 in 0.00 W/m2
06:54 44.6 °F 41.9 °F 30.09 in SSE 1.8 mph 3.4 mph 90% 0.00 in 0.00 W/m2
06:59 44.4 °F 41.7 °F 30.09 in SE 2.2 mph 3.4 mph 90% 0.00 in 0.00 W/m2
07:04 44.4 °F 41.4 °F 30.09 in SSE 5.8 mph 8.1 mph 89% 0.00 in 0.00 W/m2
07:09 44.2 °F 41.2 °F 30.10 in SSE 4.0 mph 4.5 mph 89% 0.00 in 0.00 W/m2
07:14 44.2 °F 41.5 °F 30.10 in SSE 2.2 mph 3.4 mph 90% 0.00 in 0.00 W/m2
07:19 44.1 °F 41.0 °F 30.11 in ESE 3.1 mph 5.8 mph 89% 0.00 in 0.00 W/m2
07:24 44.1 °F 41.4 °F 30.10 in East 1.3 mph 2.2 mph 90% 0.00 in 1.71 W/m2
07:29 44.1 °F 41.0 °F 30.11 in SE 3.1 mph 4.5 mph 89% 0.00 in 5.63 W/m2
07:34 44.1 °F 41.0 °F 30.11 in South 4.5 mph 5.8 mph 89% 0.00 in 6.48 W/m2
07:39 44.1 °F 41.0 °F 30.12 in SE 0.9 mph 2.2 mph 89% 0.00 in 13.33 W/m2
07:44 43.9 °F 40.8 °F 30.12 in ESE 3.8 mph 5.8 mph 89% 0.00 in 14.31 W/m2
07:49 43.9 °F 40.8 °F 30.12 in SSE 3.4 mph 4.5 mph 89% 0.00 in 28.14 W/m2
07:54 43.9 °F 40.5 °F 30.12 in SSE 1.8 mph 2.2 mph 88% 0.00 in 42.94 W/m2
07:59 43.9 °F 40.5 °F 30.13 in SE 7.6 mph 11.4 mph 88% 0.00 in 48.56 W/m2
08:04 43.9 °F 40.5 °F 30.13 in SE 2.0 mph 3.4 mph 88% 0.00 in 68.02 W/m2
08:09 43.9 °F 40.3 °F 30.14 in SSE 4.7 mph 5.8 mph 87% 0.00 in 58.11 W/m2
08:14 43.9 °F 40.3 °F 30.14 in ESE 0.9 mph 1.1 mph 87% 0.00 in 65.45 W/m2
08:19 43.9 °F 40.3 °F 30.14 in SSW 3.8 mph 6.9 mph 87% 0.00 in 67.16 W/m2
08:24 43.9 °F 40.3 °F 30.15 in South 5.8 mph 8.1 mph 87% 0.00 in 84.53 W/m2
08:29 43.9 °F 40.5 °F 30.15 in SE 2.9 mph 3.4 mph 88% 0.00 in 147.41 W/m2
08:34 44.2 °F 40.3 °F 30.15 in ESE 0.7 mph 2.2 mph 86% 0.00 in 160.02 W/m2
08:39 44.4 °F 40.5 °F 30.16 in SSE 3.4 mph 4.5 mph 86% 0.00 in 119.27 W/m2
08:44 44.8 °F 40.3 °F 30.16 in SSW 8.5 mph 12.5 mph 84% 0.00 in 131.39 W/m2
08:49 44.6 °F 40.5 °F 30.16 in SSE 2.9 mph 3.4 mph 85% 0.00 in 122.70 W/m2
08:54 44.1 °F 40.1 °F 30.18 in SSE 0.9 mph 1.1 mph 86% 0.00 in 109.24 W/m2
08:59 43.9 °F 39.4 °F 30.17 in SSE 4.0 mph 4.5 mph 84% 0.00 in 310.61 W/m2
09:04 44.2 °F 39.7 °F 30.17 in South 5.6 mph 11.4 mph 84% 0.00 in 112.67 W/m2
09:09 43.9 °F 39.0 °F 30.17 in SSE 4.0 mph 6.9 mph 83% 0.00 in 107.04 W/m2
09:14 44.1 °F 39.2 °F 30.18 in East 3.8 mph 5.8 mph 83% 0.00 in 147.90 W/m2
09:19 44.4 °F 39.2 °F 30.19 in ESE 2.5 mph 3.4 mph 82% 0.00 in 269.75 W/m2
09:24 45.5 °F 40.3 °F 30.19 in SSE 1.6 mph 3.4 mph 82% 0.00 in 405.54 W/m2
09:29 45.1 °F 39.6 °F 30.20 in SSW 7.4 mph 11.4 mph 81% 0.00 in 174.81 W/m2
09:34 45.3 °F 39.6 °F 30.20 in ESE 3.6 mph 6.9 mph 80% 0.00 in 187.78 W/m2
09:39 45.1 °F 39.6 °F 30.20 in SSE 3.4 mph 4.5 mph 81% 0.00 in 421.57 W/m2
09:44 45.1 °F 39.4 °F 30.20 in South 3.4 mph 5.8 mph 80% 0.00 in 399.42 W/m2
09:49 46.0 °F 39.2 °F 30.21 in SSE 3.8 mph 5.8 mph 77% 0.00 in 398.57 W/m2
09:54 45.7 °F 38.8 °F 30.21 in East 4.0 mph 8.1 mph 77% 0.00 in 418.51 W/m2
09:59 45.5 °F 38.7 °F 30.20 in South 4.0 mph 4.5 mph 77% 0.00 in 417.66 W/m2
10:04 46.0 °F 38.8 °F 30.21 in ESE 3.8 mph 4.5 mph 76% 0.00 in 435.03 W/m2
10:09 46.6 °F 39.4 °F 30.22 in SE 3.1 mph 4.5 mph 76% 0.00 in 452.40 W/m2
10:14 46.8 °F 39.6 °F 30.22 in SSE 5.8 mph 9.2 mph 76% 0.00 in 493.13 W/m2
10:19 46.4 °F 38.3 °F 30.21 in SE 4.7 mph 6.9 mph 73% 0.00 in 492.77 W/m2
10:24 46.4 °F 37.8 °F 30.22 in SSE 5.8 mph 9.2 mph 72% 0.00 in 499.74 W/m2
10:29 46.6 °F 38.5 °F 30.22 in ESE 4.5 mph 6.9 mph 73% 0.00 in 499.74 W/m2
10:34 46.8 °F 38.7 °F 30.22 in SE 2.7 mph 5.8 mph 73% 0.00 in 509.28 W/m2
10:39 46.9 °F 37.8 °F 30.23 in ESE 3.6 mph 6.9 mph 70% 0.00 in 531.30 W/m2
10:44 47.7 °F 37.9 °F 30.23 in SE 2.9 mph 4.5 mph 69% 0.00 in 539.99 W/m2
10:49 47.5 °F 37.8 °F 30.23 in South 4.0 mph 6.9 mph 69% 0.00 in 562.13 W/m2
10:54 48.2 °F 37.8 °F 30.24 in SSE 7.6 mph 13.6 mph 67% 0.00 in 595.16 W/m2
10:59 47.8 °F 37.0 °F 30.23 in SSW 3.1 mph 4.5 mph 66% 0.00 in 664.16 W/m2
11:04 49.3 °F 37.6 °F 30.23 in SSE 3.4 mph 5.8 mph 64% 0.00 in 665.38 W/m2
11:09 49.3 °F 37.2 °F 30.24 in ESE 7.4 mph 11.4 mph 63% 0.00 in 406.40 W/m2
11:14 48.9 °F 36.5 °F 30.25 in South 4.0 mph 6.9 mph 62% 0.00 in 636.39 W/m2
11:19 49.8 °F 37.8 °F 30.24 in South 3.4 mph 5.8 mph 63% 0.00 in 648.01 W/m2
11:24 49.8 °F 37.8 °F 30.25 in East 3.4 mph 6.9 mph 63% 0.00 in 648.01 W/m2
11:29 50.5 °F 37.6 °F 30.25 in ESE 4.5 mph 6.9 mph 61% 0.00 in 690.96 W/m2
11:34 50.7 °F 38.7 °F 30.25 in ESE 1.3 mph 2.2 mph 63% 0.00 in 681.41 W/m2
11:39 50.5 °F 38.5 °F 30.25 in East 2.2 mph 4.5 mph 63% 0.00 in 548.67 W/m2
11:44 51.3 °F 37.0 °F 30.26 in SE 2.7 mph 5.8 mph 58% 0.00 in 591.25 W/m2
11:49 50.7 °F 35.6 °F 30.25 in South 3.8 mph 5.8 mph 56% 0.00 in 474.91 W/m2
11:54 50.2 °F 35.6 °F 30.26 in South 2.7 mph 4.5 mph 57% 0.00 in 897.46 W/m2
11:59 50.9 °F 36.1 °F 30.25 in SSE 4.5 mph 5.8 mph 57% 0.00 in 546.11 W/m2
12:04 50.2 °F 35.6 °F 30.26 in SE 4.0 mph 9.2 mph 57% 0.00 in 747.84 W/m2
12:09 49.8 °F 35.6 °F 30.26 in SSW 4.5 mph 8.1 mph 58% 0.00 in 527.51 W/m2
12:14 49.8 °F 36.9 °F 30.26 in ESE 1.3 mph 2.2 mph 61% 0.00 in 717.50 W/m2
12:19 50.2 °F 36.5 °F 30.25 in SSE 3.8 mph 5.8 mph 59% 0.00 in 550.51 W/m2
12:24 51.1 °F 36.9 °F 30.25 in ESE 2.9 mph 3.4 mph 58% 0.00 in 714.81 W/m2
12:29 50.4 °F 36.1 °F 30.24 in East 4.0 mph 9.2 mph 58% 0.00 in 581.70 W/m2
12:34 51.1 °F 36.3 °F 30.25 in SE 3.6 mph 5.8 mph 57% 0.00 in 727.90 W/m2
12:39 51.8 °F 36.7 °F 30.25 in SSE 2.2 mph 3.4 mph 56% 0.00 in 713.95 W/m2
12:44 51.8 °F 37.0 °F 30.25 in ESE 2.9 mph 3.4 mph 57% 0.00 in 654.13 W/m2
12:49 51.8 °F 36.7 °F 30.26 in East 6.0 mph 9.2 mph 56% 0.00 in 763.01 W/m2
12:54 51.6 °F 36.5 °F 30.25 in SE 3.6 mph 5.8 mph 56% 0.00 in 418.51 W/m2
12:59 52.2 °F 34.2 °F 30.25 in SSE 4.7 mph 6.9 mph 50% 0.00 in 449.34 W/m2
13:04 51.4 °F 34.0 °F 30.25 in ESE 2.5 mph 3.4 mph 51% 0.00 in 564.33 W/m2
13:09 52.3 °F 33.8 °F 30.25 in ENE 0.9 mph 1.1 mph 49% 0.00 in 584.28 W/m2
13:14 52.7 °F 32.0 °F 30.25 in East 2.7 mph 4.5 mph 45% 0.00 in 881.92 W/m2
13:19 52.9 °F 31.1 °F 30.24 in SE 5.8 mph 9.2 mph 43% 0.00 in 413.74 W/m2
13:24 51.4 °F 30.2 °F 30.24 in East 4.5 mph 9.2 mph 44% 0.00 in 405.54 W/m2
13:29 51.3 °F 30.7 °F 30.23 in South 2.9 mph 3.4 mph 45% 0.00 in 426.83 W/m2
13:34 51.8 °F 28.9 °F 30.24 in ENE 4.9 mph 8.1 mph 41% 0.00 in 913.12 W/m2
13:39 52.0 °F 30.2 °F 30.25 in SE 1.3 mph 3.4 mph 43% 0.00 in 501.45 W/m2
13:44 52.7 °F 30.9 °F 30.23 in SSE 3.8 mph 5.8 mph 43% 0.00 in 699.27 W/m2
13:49 52.0 °F 29.7 °F 30.23 in SE 2.2 mph 3.4 mph 42% 0.00 in 407.74 W/m2
13:54 51.6 °F 30.9 °F 30.24 in East 1.8 mph 4.5 mph 45% 0.00 in 408.97 W/m2
13:59 52.0 °F 29.1 °F 30.24 in ENE 1.1 mph 3.4 mph 41% 0.00 in 917.03 W/m2
14:04 51.8 °F 30.0 °F 30.24 in SE 3.4 mph 6.9 mph 43% 0.00 in 356.98 W/m2
14:09 51.4 °F 29.7 °F 30.25 in ESE 2.9 mph 4.5 mph 43% 0.00 in 740.87 W/m2
14:14 50.9 °F 29.3 °F 30.24 in ESE 1.8 mph 3.4 mph 43% 0.00 in 474.54 W/m2
14:19 51.4 °F 29.1 °F 30.25 in SE 4.0 mph 6.9 mph 42% 0.00 in 638.47 W/m2
14:24 51.8 °F 30.0 °F 30.25 in ESE 2.2 mph 4.5 mph 43% 0.00 in 602.99 W/m2
14:29 51.6 °F 29.3 °F 30.24 in SE 4.0 mph 6.9 mph 42% 0.00 in 389.52 W/m2
14:34 50.2 °F 30.2 °F 30.24 in South 2.2 mph 3.4 mph 46% 0.00 in 304.49 W/m2
14:39 49.5 °F 30.0 °F 30.23 in ESE 2.5 mph 4.5 mph 47% 0.00 in 560.91 W/m2
14:44 50.2 °F 31.3 °F 30.24 in South 4.0 mph 8.1 mph 48% 0.00 in 320.52 W/m2
14:49 49.8 °F 30.4 °F 30.24 in SE 2.5 mph 4.5 mph 47% 0.00 in 365.17 W/m2
14:54 48.9 °F 30.6 °F 30.24 in SE 2.9 mph 4.5 mph 49% 0.00 in 236.84 W/m2
14:59 48.6 °F 30.7 °F 30.24 in ESE 3.1 mph 3.4 mph 50% 0.00 in 226.81 W/m2
15:04 48.6 °F 31.8 °F 30.24 in SSE 2.0 mph 2.2 mph 52% 0.00 in 216.90 W/m2
15:09 48.2 °F 31.8 °F 30.24 in SSE 1.6 mph 2.2 mph 53% 0.00 in 176.53 W/m2
15:14 48.0 °F 31.3 °F 30.24 in ESE 2.9 mph 4.5 mph 52% 0.00 in 159.53 W/m2
15:19 48.0 °F 31.3 °F 30.24 in SSE 1.8 mph 3.4 mph 52% 0.00 in 208.22 W/m2
15:24 48.0 °F 32.2 °F 30.23 in ESE 1.1 mph 2.2 mph 54% 0.00 in 134.44 W/m2
15:29 47.5 °F 31.3 °F 30.23 in South 5.4 mph 6.9 mph 53% 0.00 in 212.49 W/m2
15:34 48.0 °F 32.2 °F 30.24 in NNE 2.0 mph 3.4 mph 54% 0.00 in 244.67 W/m2
15:39 47.7 °F 31.8 °F 30.24 in SSE 1.8 mph 3.4 mph 54% 0.00 in 168.21 W/m2
15:44 47.8 °F 32.9 °F 30.25 in SSE 4.5 mph 5.8 mph 56% 0.00 in 156.59 W/m2
15:49 47.5 °F 32.5 °F 30.25 in SW 5.6 mph 6.9 mph 56% 0.00 in 206.38 W/m2
15:54 47.5 °F 32.5 °F 30.24 in ESE 1.3 mph 2.2 mph 56% 0.00 in 152.68 W/m2
15:59 47.5 °F 33.1 °F 30.25 in ESE 4.0 mph 5.8 mph 57% 0.00 in 124.41 W/m2
16:04 47.8 °F 33.8 °F 30.25 in SE 2.9 mph 5.8 mph 58% 0.00 in 170.41 W/m2
16:09 47.7 °F 34.0 °F 30.25 in ESE 0.7 mph 2.2 mph 59% 0.00 in 218.98 W/m2
16:14 47.7 °F 34.0 °F 30.25 in SSE 2.2 mph 3.4 mph 59% 0.00 in 163.93 W/m2
16:19 47.7 °F 34.0 °F 30.25 in ESE 2.2 mph 3.4 mph 59% 0.00 in 148.27 W/m2
16:24 48.0 °F 34.3 °F 30.25 in SSE 0.9 mph 2.2 mph 59% 0.00 in 144.85 W/m2
16:29 48.0 °F 34.3 °F 30.25 in ESE 0.9 mph 1.1 mph 59% 0.00 in 120.13 W/m2
16:34 47.8 °F 34.2 °F 30.26 in SE 1.1 mph 1.1 mph 59% 0.00 in 111.44 W/m2
16:39 47.7 °F 34.5 °F 30.26 in East 1.3 mph 2.2 mph 60% 0.00 in 103.61 W/m2
16:44 47.8 °F 34.7 °F 30.27 in ESE 1.8 mph 2.2 mph 60% 0.00 in 88.82 W/m2
16:49 47.8 °F 34.2 °F 30.27 in ENE 0.9 mph 2.2 mph 59% 0.00 in 79.27 W/m2
16:54 47.7 °F 34.5 °F 30.27 in SSE 1.3 mph 2.2 mph 60% 0.00 in 59.82 W/m2
16:59 47.7 °F 34.5 °F 30.26 in SE 2.2 mph 4.5 mph 60% 0.00 in 55.41 W/m2
17:04 47.5 °F 34.3 °F 30.25 in SSE 2.7 mph 3.4 mph 60% 0.00 in 55.05 W/m2
17:09 47.5 °F 34.3 °F 30.26 in SE 1.1 mph 2.2 mph 60% 0.00 in 76.34 W/m2
17:14 47.5 °F 33.8 °F 30.26 in SSE 0.7 mph 1.1 mph 59% 0.00 in 57.62 W/m2
17:19 47.7 °F 34.0 °F 30.26 in SE 0.7 mph 1.1 mph 59% 0.00 in 57.62 W/m2
17:24 47.7 °F 34.0 °F 30.26 in SSE 0.9 mph 1.1 mph 59% 0.00 in 53.70 W/m2
17:29 47.8 °F 34.2 °F 30.26 in Calm     59% 0.00 in 61.17 W/m2
17:34 47.8 °F 34.2 °F 30.26 in ESE 1.6 mph 2.2 mph 59% 0.00 in 37.68 W/m2
17:39 47.7 °F 34.0 °F 30.26 in East 1.3 mph 2.2 mph 59% 0.00 in 42.45 W/m2
17:44 47.5 °F 34.3 °F 30.26 in SE 0.7 mph 1.1 mph 60% 0.00 in 35.97 W/m2
17:49 47.5 °F 33.4 °F 30.25 in SSE 2.0 mph 2.2 mph 58% 0.00 in 23.85 W/m2
17:54 47.3 °F 33.3 °F 30.27 in SE 2.2 mph 3.4 mph 58% 0.00 in 18.60 W/m2
17:59 47.3 °F 33.6 °F 30.26 in SE 1.3 mph 2.2 mph 59% 0.00 in 13.33 W/m2
18:04 47.3 °F 33.6 °F 30.26 in SSE 1.1 mph 1.1 mph 59% 0.00 in 11.62 W/m2
18:09 47.3 °F 34.2 °F 30.27 in ESE 0.7 mph 1.1 mph 60% 0.00 in 7.70 W/m2
18:14 47.3 °F 34.2 °F 30.27 in ESE 2.0 mph 2.2 mph 60% 0.00 in 4.28 W/m2
18:19 46.9 °F 34.2 °F 30.28 in Calm     61% 0.00 in 0.85 W/m2
18:24 46.9 °F 34.2 °F 30.27 in SSE 1.6 mph 3.4 mph 61% 0.00 in 0.00 W/m2
18:29 46.9 °F 34.2 °F 30.26 in ESE 0.2 mph 1.1 mph 61% 0.00 in 0.00 W/m2
18:34 46.8 °F 33.6 °F 30.27 in SE 1.8 mph 2.2 mph 60% 0.00 in 0.00 W/m2
18:39 46.6 °F 33.8 °F 30.28 in ESE 1.3 mph 2.2 mph 61% 0.00 in 0.00 W/m2
18:44 46.6 °F 33.4 °F 30.27 in SSE 2.2 mph 3.4 mph 60% 0.00 in 0.00 W/m2
18:49 46.4 °F 33.3 °F 30.27 in South 0.9 mph 2.2 mph 60% 0.00 in 0.00 W/m2
18:54 46.4 °F 33.3 °F 30.29 in East 2.0 mph 2.2 mph 60% 0.00 in 0.00 W/m2
18:59 46.0 °F 33.8 °F 30.28 in East 0.2 mph 1.1 mph 62% 0.00 in 0.00 W/m2
19:04 46.4 °F 32.9 °F 30.28 in ESE 0.2 mph 1.1 mph 59% 0.00 in 0.00 W/m2
19:09 46.4 °F 32.0 °F 30.28 in SSE 1.8 mph 2.2 mph 57% 0.00 in 0.00 W/m2
19:14 46.2 °F 31.8 °F 30.29 in ESE 1.1 mph 2.2 mph 57% 0.00 in 0.00 W/m2
19:19 46.2 °F 32.7 °F 30.30 in SE 0.7 mph 1.1 mph 59% 0.00 in 0.00 W/m2
19:24 46.0 °F 32.5 °F 30.30 in ESE 0.2 mph 1.1 mph 59% 0.00 in 0.00 W/m2
19:29 46.2 °F 31.8 °F 30.30 in South 1.6 mph 2.2 mph 57% 0.00 in 0.00 W/m2
19:34 46.0 °F 32.2 °F 30.30 in SE 2.0 mph 3.4 mph 58% 0.00 in 0.00 W/m2
19:39 45.9 °F 31.5 °F 30.31 in SSE 2.9 mph 3.4 mph 57% 0.00 in 0.00 W/m2
19:44 45.5 °F 31.1 °F 30.30 in SE 0.9 mph 1.1 mph 57% 0.00 in 0.00 W/m2
19:49 45.7 °F 30.9 °F 30.31 in East 0.4 mph 1.1 mph 56% 0.00 in 0.00 W/m2
19:54 45.3 °F 31.5 °F 30.31 in ESE 0.2 mph 1.1 mph 58% 0.00 in 0.00 W/m2
19:59 45.0 °F 30.2 °F 30.31 in SSE 0.9 mph 1.1 mph 56% 0.00 in 0.00 W/m2
20:04 45.0 °F 30.6 °F 30.31 in SE 0.9 mph 1.1 mph 57% 0.00 in 0.00 W/m2
20:09 45.0 °F 30.2 °F 30.30 in South 2.9 mph 3.4 mph 56% 0.00 in 0.00 W/m2
20:14 44.6 °F 30.4 °F 30.31 in SE 0.7 mph 1.1 mph 57% 0.00 in 0.00 W/m2
20:19 44.6 °F 29.8 °F 30.31 in South 3.8 mph 5.8 mph 56% 0.00 in 0.00 W/m2
20:24 44.4 °F 29.7 °F 30.31 in SE 0.7 mph 2.2 mph 56% 0.00 in 0.00 W/m2
20:29 44.2 °F 30.0 °F 30.31 in South 0.7 mph 1.1 mph 57% 0.00 in 0.00 W/m2
20:34 44.1 °F 29.8 °F 30.33 in ENE 0.2 mph 1.1 mph 57% 0.00 in 0.00 W/m2
Soleil - Laurel Canyon
Compliments of Weather Underground - 3 mb